createdAt,value
2023-12-19T00:01:16.519Z,24.42
2023-12-19T00:03:43.250Z,23.92
2023-12-19T00:08:37.461Z,23.88
2023-12-19T00:11:04.295Z,25.25
2023-12-19T00:15:57.308Z,23.25
2023-12-19T00:18:23.983Z,26.90
2023-12-19T00:20:53.918Z,26.38
2023-12-19T00:23:20.486Z,27.40
2023-12-19T00:25:47.244Z,25.30
2023-12-19T00:30:41.645Z,25.38
2023-12-19T00:35:34.927Z,26.42
2023-12-19T00:38:04.465Z,28.90
2023-12-19T00:40:30.969Z,27.65
2023-12-19T00:42:57.569Z,28.23
2023-12-19T00:45:24.117Z,28.02
2023-12-19T00:47:50.721Z,30.45
2023-12-19T00:50:17.326Z,27.90
2023-12-19T00:52:44.220Z,30.05
2023-12-19T00:55:11.049Z,33.42
2023-12-19T00:57:37.681Z,29.70
2023-12-19T01:00:05.276Z,28.88
2023-12-19T01:02:34.496Z,30.20
2023-12-19T01:05:01.110Z,28.23
2023-12-19T01:07:27.680Z,31.60
2023-12-19T01:09:54.428Z,30.27
2023-12-19T01:12:21.454Z,30.63
2023-12-19T01:14:48.083Z,35.83
2023-12-19T01:17:14.750Z,28.40
2023-12-19T01:19:42.168Z,30.50
2023-12-19T01:22:08.740Z,33.78
2023-12-19T01:24:35.612Z,32.25
2023-12-19T01:27:02.178Z,30.15
2023-12-19T01:29:28.625Z,30.60
2023-12-19T01:31:55.248Z,28.52
2023-12-19T01:34:22.243Z,27.90
2023-12-19T01:36:56.912Z,27.20
2023-12-19T01:39:24.819Z,29.63
2023-12-19T01:41:51.410Z,30.58
2023-12-19T01:44:19.284Z,25.65
2023-12-19T01:46:47.608Z,26.10
2023-12-19T01:49:14.731Z,26.08
2023-12-19T01:51:41.877Z,24.23
2023-12-19T01:54:10.128Z,25.35
2023-12-19T01:56:37.370Z,26.60
2023-12-19T01:59:06.547Z,23.67
2023-12-19T02:01:36.165Z,26.33
2023-12-19T02:04:03.218Z,27.02
2023-12-19T02:06:34.275Z,24.17
2023-12-19T02:09:02.310Z,23.05
2023-12-19T02:11:30.005Z,22.45
2023-12-19T02:13:59.359Z,23.60
2023-12-19T02:16:27.666Z,22.80
2023-12-19T02:19:20.733Z,24.73
2023-12-19T02:21:47.391Z,26.25
2023-12-19T02:24:13.977Z,26.02
2023-12-19T02:26:41.360Z,23.60
2023-12-19T02:29:07.879Z,24.27
2023-12-19T02:31:34.508Z,26.98
2023-12-19T02:34:01.119Z,25.25
2023-12-19T02:36:27.836Z,25.27
2023-12-19T02:38:54.424Z,29.58
2023-12-19T02:41:21.002Z,25.95
2023-12-19T02:43:54.193Z,28.77
2023-12-19T02:46:23.235Z,28.50
2023-12-19T02:48:49.912Z,28.17
2023-12-19T02:51:19.738Z,28.67
2023-12-19T02:53:46.588Z,29.23
2023-12-19T02:56:13.089Z,29.55
2023-12-19T02:58:41.380Z,26.27
2023-12-19T03:01:08.338Z,25.92
2023-12-19T03:03:35.138Z,27.77
2023-12-19T03:06:02.413Z,27.58
2023-12-19T03:08:29.071Z,28.40
2023-12-19T03:10:57.479Z,28.48
2023-12-19T03:13:24.051Z,26.73
2023-12-19T03:15:50.595Z,24.02
2023-12-19T03:18:17.256Z,24.60
2023-12-19T03:20:44.643Z,24.42
2023-12-19T03:23:11.185Z,22.33
2023-12-19T03:25:37.792Z,22.05
2023-12-19T03:28:04.865Z,23.48
2023-12-19T03:30:31.495Z,19.50
2023-12-19T03:32:58.040Z,21.80
2023-12-19T03:35:24.588Z,24.27
2023-12-19T03:37:51.682Z,21.30
2023-12-19T03:40:18.279Z,22.23
2023-12-19T03:42:45.238Z,20.73
2023-12-19T03:45:12.085Z,22.38
2023-12-19T03:47:39.593Z,18.75
2023-12-19T03:50:07.223Z,20.00
2023-12-19T03:52:34.006Z,21.25
2023-12-19T03:55:00.970Z,22.02
2023-12-19T03:57:28.181Z,19.35
2023-12-19T03:59:55.569Z,20.98
2023-12-19T04:02:22.110Z,20.70
2023-12-19T04:04:48.652Z,21.58
2023-12-19T04:07:15.171Z,22.63
2023-12-19T04:09:41.881Z,24.38
2023-12-19T04:12:10.398Z,25.92
2023-12-19T04:14:37.100Z,23.52
2023-12-19T04:17:04.018Z,22.38
2023-12-19T04:21:58.997Z,21.80
2023-12-19T04:24:27.776Z,23.63
2023-12-19T04:26:54.768Z,24.88
2023-12-19T04:29:21.307Z,23.52
2023-12-19T04:31:48.005Z,21.85
2023-12-19T04:34:15.054Z,21.73
2023-12-19T04:36:41.836Z,23.50
2023-12-19T04:39:08.596Z,24.10
2023-12-19T04:41:35.566Z,24.92
2023-12-19T04:46:28.523Z,27.50
2023-12-19T04:48:56.989Z,25.95
2023-12-19T04:51:23.820Z,27.20
2023-12-19T04:53:50.509Z,26.67
2023-12-19T04:56:18.067Z,27.02
2023-12-19T04:58:48.811Z,23.33
2023-12-19T05:01:15.704Z,24.55
2023-12-19T05:03:43.597Z,21.58
2023-12-19T05:06:11.120Z,21.95
2023-12-19T05:08:37.691Z,26.60
2023-12-19T05:11:04.987Z,25.77
2023-12-19T05:13:31.547Z,26.17
2023-12-19T05:15:58.144Z,25.02
2023-12-19T05:18:24.880Z,22.95
2023-12-19T05:20:51.578Z,24.42
2023-12-19T05:23:18.086Z,24.85
2023-12-19T05:25:44.738Z,22.73
2023-12-19T05:28:11.351Z,25.73
2023-12-19T05:30:37.967Z,21.15
2023-12-19T05:33:04.828Z,19.95
2023-12-19T05:35:31.870Z,22.67
2023-12-19T05:37:58.983Z,23.60
2023-12-19T05:40:25.570Z,18.25
2023-12-19T05:42:55.656Z,19.85
2023-12-19T05:45:22.321Z,18.70
2023-12-19T05:47:49.506Z,19.25
2023-12-19T05:50:16.261Z,20.30
2023-12-19T05:52:42.853Z,22.35
2023-12-19T05:55:09.534Z,21.92
2023-12-19T05:57:37.875Z,21.67
2023-12-19T06:00:07.329Z,22.65
2023-12-19T06:02:34.026Z,26.40
2023-12-19T06:05:08.528Z,27.00
2023-12-19T06:07:38.482Z,22.83
2023-12-19T06:10:12.494Z,24.00
2023-12-19T06:12:39.905Z,25.83
2023-12-19T06:15:09.797Z,21.45
2023-12-19T06:17:36.924Z,24.73
2023-12-19T06:20:04.359Z,24.67
2023-12-19T06:22:30.970Z,25.20
2023-12-19T06:24:57.670Z,20.98
2023-12-19T06:27:24.264Z,21.25
2023-12-19T06:29:50.905Z,19.02
2023-12-19T06:32:17.465Z,18.55
2023-12-19T06:34:44.136Z,19.67
2023-12-19T06:37:10.707Z,18.80
2023-12-19T06:39:37.930Z,20.27
2023-12-19T06:42:04.838Z,19.33
2023-12-19T06:44:31.325Z,18.77
2023-12-19T06:46:58.062Z,22.35
2023-12-19T06:49:26.175Z,21.80
2023-12-19T06:51:54.365Z,21.27
2023-12-19T06:54:20.886Z,22.48
2023-12-19T06:56:47.451Z,22.83
2023-12-19T06:59:15.353Z,23.40
2023-12-19T07:01:41.993Z,23.30
2023-12-19T07:04:08.582Z,24.17
2023-12-19T07:06:36.155Z,22.80
2023-12-19T07:09:02.787Z,19.25
2023-12-19T07:11:29.408Z,20.13
2023-12-19T07:13:55.978Z,19.98
2023-12-19T07:16:23.250Z,20.85
2023-12-19T07:18:50.442Z,20.15
2023-12-19T07:21:20.945Z,18.48
2023-12-19T07:23:47.880Z,18.95
2023-12-19T07:28:52.122Z,16.38
2023-12-19T07:31:22.261Z,16.15
2023-12-19T07:33:49.049Z,21.98
2023-12-19T07:36:15.703Z,16.33
2023-12-19T07:38:42.209Z,21.17
2023-12-19T07:41:08.749Z,17.40
2023-12-19T07:43:35.443Z,18.38
2023-12-19T07:46:04.316Z,17.50
2023-12-19T07:48:30.995Z,17.83
2023-12-19T07:50:58.206Z,14.80
2023-12-19T07:53:28.202Z,18.15
2023-12-19T07:55:54.733Z,18.60
2023-12-19T07:58:21.802Z,19.20
2023-12-19T08:00:48.910Z,20.15
2023-12-19T08:03:17.062Z,21.73
2023-12-19T08:05:51.367Z,21.50
2023-12-19T08:08:21.566Z,21.40
2023-12-19T08:10:48.148Z,21.20
2023-12-19T08:13:14.720Z,20.45
2023-12-19T08:15:41.969Z,19.13
2023-12-19T08:18:09.035Z,21.15
2023-12-19T08:20:35.682Z,22.70
2023-12-19T08:23:02.297Z,21.15
2023-12-19T08:25:28.964Z,24.15
2023-12-19T08:27:55.583Z,26.77
2023-12-19T08:30:25.685Z,23.40
2023-12-19T08:32:52.358Z,21.92
2023-12-19T08:35:19.457Z,26.15
2023-12-19T08:37:46.693Z,24.50
2023-12-19T08:40:13.331Z,22.02
2023-12-19T08:42:41.609Z,20.33
2023-12-19T08:45:18.873Z,22.70
2023-12-19T08:47:46.530Z,24.50
2023-12-19T08:50:15.073Z,27.90
2023-12-19T08:52:42.411Z,26.70
2023-12-19T08:55:13.634Z,29.90
2023-12-19T08:57:45.238Z,24.95
2023-12-19T09:00:19.880Z,26.40
2023-12-19T09:02:47.572Z,25.27
2023-12-19T09:05:15.957Z,25.65
2023-12-19T09:07:43.370Z,23.08
2023-12-19T09:10:12.712Z,24.08
2023-12-19T09:12:39.894Z,23.13
2023-12-19T09:15:08.062Z,23.23
2023-12-19T09:17:35.362Z,20.73
2023-12-19T09:20:05.968Z,21.23
2023-12-19T09:22:33.208Z,21.63
2023-12-19T09:24:59.932Z,19.63
2023-12-19T09:27:27.482Z,20.50
2023-12-19T09:29:54.211Z,19.98
2023-12-19T09:32:20.796Z,19.92
2023-12-19T09:34:48.202Z,18.40
2023-12-19T09:37:15.059Z,18.27
2023-12-19T09:42:08.550Z,21.17
2023-12-19T09:44:35.216Z,21.60
2023-12-19T09:47:04.008Z,23.92
2023-12-19T09:49:33.718Z,24.23
2023-12-19T09:52:00.983Z,25.67
2023-12-19T09:54:27.841Z,26.90
2023-12-19T09:56:55.349Z,26.75
2023-12-19T09:59:22.591Z,25.88
2023-12-19T10:01:49.434Z,28.33
2023-12-19T10:06:57.492Z,23.98
2023-12-19T10:09:24.234Z,25.75
2023-12-19T10:12:11.147Z,26.67
2023-12-19T10:14:38.612Z,22.17
2023-12-19T10:17:16.387Z,24.17
2023-12-19T10:19:43.384Z,21.98
2023-12-19T10:22:17.770Z,21.50
2023-12-19T10:24:44.416Z,22.60
2023-12-19T10:27:11.394Z,21.70
2023-12-19T10:29:38.139Z,23.65
2023-12-19T10:32:12.229Z,21.73
2023-12-19T10:34:39.488Z,23.00
2023-12-19T10:37:13.730Z,23.77
2023-12-19T10:39:43.763Z,19.52
2023-12-19T10:42:11.427Z,20.75
2023-12-19T10:44:41.965Z,23.17
2023-12-19T10:47:09.372Z,22.20
2023-12-19T10:49:40.162Z,22.00
2023-12-19T10:52:13.954Z,25.63
2023-12-19T10:54:42.915Z,25.00
2023-12-19T10:57:18.965Z,28.23
2023-12-19T10:59:57.731Z,27.88
2023-12-19T11:02:36.357Z,25.98
2023-12-19T11:05:13.807Z,27.27
2023-12-19T11:07:44.084Z,26.90
2023-12-19T11:10:12.355Z,28.13
2023-12-19T11:12:39.126Z,27.58
2023-12-19T11:15:06.749Z,27.33
2023-12-19T11:17:46.855Z,25.23
2023-12-19T11:20:37.962Z,24.73
2023-12-19T11:23:18.199Z,28.20
2023-12-19T11:26:07.098Z,27.90
2023-12-19T11:28:37.558Z,26.70
2023-12-19T11:31:04.408Z,24.25
2023-12-19T11:33:32.420Z,22.25
2023-12-19T11:36:12.392Z,21.95
2023-12-19T11:38:38.890Z,19.70
2023-12-19T11:41:05.413Z,20.58
2023-12-19T11:43:32.393Z,20.33
2023-12-19T11:46:17.279Z,19.80
2023-12-19T11:48:48.462Z,22.48
2023-12-19T11:51:35.307Z,20.85
2023-12-19T11:54:01.856Z,21.20
2023-12-19T11:56:28.379Z,23.20
2023-12-19T11:58:54.918Z,24.73
2023-12-19T12:01:24.515Z,23.02
2023-12-19T12:03:51.260Z,20.35
2023-12-19T12:06:22.043Z,21.15
2023-12-19T12:08:54.971Z,21.85
2023-12-19T12:11:21.512Z,19.17
2023-12-19T12:14:02.261Z,24.02
2023-12-19T12:16:39.342Z,27.13
2023-12-19T12:19:22.362Z,29.73
2023-12-19T12:21:51.507Z,26.73
2023-12-19T12:24:20.367Z,30.85
2023-12-19T12:26:52.859Z,30.38
2023-12-19T12:29:20.630Z,30.75
2023-12-19T12:31:48.851Z,30.13
2023-12-19T12:34:16.308Z,29.30
2023-12-19T12:36:48.285Z,28.48
2023-12-19T12:39:20.826Z,24.90
2023-12-19T12:41:47.486Z,27.75
2023-12-19T12:44:14.154Z,26.85
2023-12-19T12:46:45.437Z,24.90
2023-12-19T12:49:17.051Z,26.23
2023-12-19T12:51:44.603Z,23.33
2023-12-19T12:54:11.422Z,26.33
2023-12-19T12:56:42.106Z,27.10
2023-12-19T12:59:14.950Z,25.70
2023-12-19T13:01:43.007Z,23.30
2023-12-19T13:04:10.827Z,25.40
2023-12-19T13:06:45.264Z,24.48
2023-12-19T13:09:16.133Z,23.70
2023-12-19T13:11:44.042Z,27.05
2023-12-19T13:14:11.238Z,27.38
2023-12-19T13:16:38.191Z,26.30
2023-12-19T13:19:05.157Z,24.08
2023-12-19T13:21:33.077Z,24.20
2023-12-19T13:23:59.705Z,24.02
2023-12-19T13:26:33.964Z,24.27
2023-12-19T13:29:01.159Z,23.13
2023-12-19T13:31:28.784Z,21.77
2023-12-19T13:33:55.548Z,21.63
2023-12-19T13:36:22.691Z,23.65
2023-12-19T13:38:50.223Z,20.60
2023-12-19T13:41:17.694Z,24.38
2023-12-19T13:43:44.832Z,22.20
2023-12-19T13:46:12.013Z,22.58
2023-12-19T13:48:41.617Z,22.33
2023-12-19T13:51:10.772Z,22.38
2023-12-19T13:53:37.332Z,22.02
2023-12-19T13:56:05.923Z,22.80
2023-12-19T13:58:32.464Z,22.58
2023-12-19T14:00:59.185Z,21.88
2023-12-19T14:05:52.505Z,22.10
2023-12-19T14:08:19.607Z,24.58
2023-12-19T14:10:46.398Z,26.15
2023-12-19T14:13:13.120Z,26.30
2023-12-19T14:15:40.473Z,30.10
2023-12-19T14:18:07.332Z,27.08
2023-12-19T14:23:02.117Z,30.10
2023-12-19T14:25:29.204Z,28.25
2023-12-19T14:27:55.953Z,27.15
2023-12-19T14:30:22.616Z,27.50
2023-12-19T14:32:49.635Z,27.48
2023-12-19T14:35:17.282Z,29.63
2023-12-19T14:37:44.352Z,28.25
2023-12-19T14:40:13.525Z,28.73
2023-12-19T14:42:40.214Z,25.20
2023-12-19T14:45:07.409Z,26.80
2023-12-19T14:47:34.108Z,24.45
2023-12-19T14:50:00.993Z,24.33
2023-12-19T14:54:54.128Z,23.70
2023-12-19T14:57:20.756Z,22.55
2023-12-19T14:59:47.316Z,23.52
2023-12-19T15:02:13.839Z,22.00
2023-12-19T15:04:40.452Z,22.45
2023-12-19T15:07:07.228Z,24.13
2023-12-19T15:12:03.475Z,20.90
2023-12-19T15:14:31.523Z,24.75
2023-12-19T15:16:58.034Z,23.58
2023-12-19T15:19:24.736Z,23.05
2023-12-19T15:21:52.369Z,22.00
2023-12-19T15:24:19.482Z,22.92
2023-12-19T15:26:46.005Z,22.17
2023-12-19T15:29:15.851Z,21.90
2023-12-19T15:31:44.112Z,23.77
2023-12-19T15:34:11.220Z,20.70
2023-12-19T15:39:05.440Z,22.83
2023-12-19T15:44:07.853Z,21.58
2023-12-19T15:46:40.832Z,19.15
2023-12-19T15:49:09.864Z,21.88
2023-12-19T15:51:36.726Z,20.58
2023-12-19T15:54:04.593Z,22.92
2023-12-19T15:56:35.194Z,21.05
2023-12-19T15:59:05.434Z,21.65
2023-12-19T16:01:32.606Z,19.25
2023-12-19T16:04:00.059Z,20.27
2023-12-19T16:06:27.623Z,19.30
2023-12-19T16:08:55.198Z,20.25
2023-12-19T16:11:25.062Z,19.42
2023-12-19T16:13:53.751Z,20.48
2023-12-19T16:16:20.696Z,21.08
2023-12-19T16:21:17.320Z,22.35
2023-12-19T16:23:56.978Z,22.23
2023-12-19T16:26:30.184Z,18.30
2023-12-19T16:31:23.548Z,17.38
2023-12-19T16:33:50.783Z,16.50
2023-12-19T16:36:17.554Z,18.55
2023-12-19T16:38:47.500Z,16.88
2023-12-19T16:41:13.967Z,17.80
2023-12-19T16:43:44.244Z,17.50
2023-12-19T16:46:11.104Z,21.27
2023-12-19T16:48:38.217Z,22.38
2023-12-19T16:51:06.028Z,19.27
2023-12-19T16:53:33.154Z,25.50
2023-12-19T16:55:59.628Z,19.58
2023-12-19T16:58:36.856Z,18.40
2023-12-19T17:01:10.565Z,21.45
2023-12-19T17:03:38.444Z,22.98
2023-12-19T17:06:05.816Z,21.58
2023-12-19T17:08:32.473Z,22.20
2023-12-19T17:10:59.063Z,20.80
2023-12-19T17:13:25.577Z,21.88
2023-12-19T17:15:52.237Z,24.75
2023-12-19T17:18:19.015Z,23.10
2023-12-19T17:20:46.246Z,21.27
2023-12-19T17:23:13.021Z,18.52
2023-12-19T17:25:39.729Z,19.20
2023-12-19T17:28:06.458Z,18.60
2023-12-19T17:30:35.528Z,19.30
2023-12-19T17:33:04.615Z,17.05
2023-12-19T17:35:31.542Z,31.83
2023-12-19T17:37:58.169Z,21.42
2023-12-19T17:40:24.674Z,18.60
2023-12-19T17:42:51.275Z,19.77
2023-12-19T17:45:17.836Z,20.00
2023-12-19T17:47:44.861Z,16.10
2023-12-19T17:50:11.747Z,16.83
2023-12-19T17:52:39.765Z,18.45
2023-12-19T17:55:06.783Z,20.48
2023-12-19T17:57:33.681Z,21.33
2023-12-19T18:02:26.855Z,16.95
2023-12-19T18:04:53.444Z,18.15
2023-12-19T18:07:20.228Z,17.35
2023-12-19T18:12:15.368Z,19.98
2023-12-19T18:14:42.028Z,15.88
2023-12-19T18:17:08.621Z,18.40
2023-12-19T18:19:35.697Z,16.25
2023-12-19T18:22:02.850Z,16.23
2023-12-19T18:24:29.561Z,18.95
2023-12-19T18:26:57.009Z,19.27
2023-12-19T18:29:24.596Z,18.17
2023-12-19T18:31:53.170Z,18.58
2023-12-19T18:34:20.432Z,16.58
2023-12-19T18:36:48.954Z,17.55
2023-12-19T18:39:16.351Z,18.08
2023-12-19T18:41:42.943Z,17.40
2023-12-19T18:44:09.490Z,16.92
2023-12-19T18:46:41.067Z,17.08
2023-12-19T18:49:08.408Z,16.27
2023-12-19T18:51:36.002Z,18.73
2023-12-19T18:54:02.642Z,20.52
2023-12-19T18:56:29.207Z,17.85
2023-12-19T18:58:55.710Z,19.58
2023-12-19T19:01:23.927Z,20.80
2023-12-19T19:03:50.840Z,20.23
2023-12-19T19:08:43.928Z,19.10
2023-12-19T19:11:10.475Z,16.85
2023-12-19T19:13:37.079Z,16.65
2023-12-19T19:16:03.947Z,18.33
2023-12-19T19:20:56.975Z,23.15
2023-12-19T19:23:23.907Z,17.45
2023-12-19T19:25:50.424Z,16.10
2023-12-19T19:28:20.044Z,17.75
2023-12-19T19:30:56.556Z,20.60
2023-12-19T19:33:26.808Z,18.70
2023-12-19T19:35:54.974Z,19.90
2023-12-19T19:38:26.270Z,21.67
2023-12-19T19:40:55.004Z,22.17
2023-12-19T19:43:21.514Z,22.15
2023-12-19T19:45:48.136Z,22.42
2023-12-19T19:48:14.742Z,22.88
2023-12-19T19:50:42.702Z,20.27
2023-12-19T19:53:09.676Z,20.75
2023-12-19T19:55:36.272Z,18.50
2023-12-19T19:58:02.965Z,18.88
2023-12-19T20:00:29.660Z,19.45
2023-12-19T20:02:56.215Z,19.45
2023-12-19T20:05:23.106Z,20.00
2023-12-19T20:07:49.872Z,20.58
2023-12-19T20:10:17.143Z,21.42
2023-12-19T20:12:44.591Z,20.70
2023-12-19T20:15:11.453Z,21.92
2023-12-19T20:17:39.040Z,23.60
2023-12-19T20:20:07.977Z,22.52
2023-12-19T20:22:35.255Z,21.25
2023-12-19T20:25:04.585Z,22.00
2023-12-19T20:27:31.416Z,22.77
2023-12-19T20:29:59.228Z,21.65
2023-12-19T20:32:26.429Z,22.25
2023-12-19T20:34:52.959Z,19.60
2023-12-19T20:37:19.682Z,18.02
2023-12-19T20:39:46.229Z,16.70
2023-12-19T20:42:13.841Z,16.70
2023-12-19T20:44:41.241Z,19.77
2023-12-19T20:47:08.050Z,19.02
2023-12-19T20:49:35.021Z,18.90
2023-12-19T20:52:02.278Z,19.58
2023-12-19T20:54:29.052Z,17.98
2023-12-19T20:56:55.658Z,17.80
2023-12-19T20:59:22.208Z,19.27
2023-12-19T21:01:48.745Z,20.70
2023-12-19T21:04:15.559Z,19.45
2023-12-19T21:06:42.346Z,19.63
2023-12-19T21:09:10.860Z,21.23
2023-12-19T21:11:37.677Z,18.50
2023-12-19T21:14:04.341Z,17.95
2023-12-19T21:16:31.120Z,18.73
2023-12-19T21:18:57.694Z,20.63
2023-12-19T21:21:24.374Z,20.58
2023-12-19T21:23:51.849Z,18.67
2023-12-19T21:26:18.736Z,17.67
2023-12-19T21:28:45.499Z,22.15
2023-12-19T21:31:12.437Z,18.80
2023-12-19T21:33:39.541Z,17.23
2023-12-19T21:38:32.758Z,20.30
2023-12-19T21:40:59.235Z,16.73
2023-12-19T21:43:25.904Z,18.38
2023-12-19T21:45:52.609Z,20.55
2023-12-19T21:48:19.233Z,22.13
2023-12-19T21:50:47.380Z,19.98
2023-12-19T21:53:14.049Z,18.52
2023-12-19T21:55:40.563Z,22.60
2023-12-19T21:58:07.184Z,21.50
2023-12-19T22:00:33.755Z,22.50
2023-12-19T22:03:00.347Z,17.83
2023-12-19T22:05:26.954Z,15.77
2023-12-19T22:07:53.608Z,18.45
2023-12-19T22:10:20.384Z,19.52
2023-12-19T22:12:47.492Z,25.00
2023-12-19T22:15:16.502Z,24.83
2023-12-19T22:17:43.400Z,20.33
2023-12-19T22:22:37.239Z,17.67
2023-12-19T22:25:04.081Z,19.15
2023-12-19T22:29:57.071Z,15.43
2023-12-19T22:32:24.284Z,20.75
2023-12-19T22:34:50.912Z,22.65
2023-12-19T22:37:17.699Z,18.98
2023-12-19T22:39:44.364Z,20.30
2023-12-19T22:42:10.924Z,17.23
2023-12-19T22:44:37.441Z,18.25
2023-12-19T22:47:04.667Z,17.45
2023-12-19T22:49:32.870Z,18.08
2023-12-19T22:51:59.990Z,19.88
2023-12-19T22:54:26.539Z,17.73
2023-12-19T22:56:53.116Z,18.50
2023-12-19T22:59:19.684Z,18.77
2023-12-19T23:01:53.465Z,19.13
2023-12-19T23:04:21.399Z,19.25
2023-12-19T23:09:14.825Z,18.42
2023-12-19T23:11:41.594Z,19.45
2023-12-19T23:14:08.746Z,20.35
2023-12-19T23:16:35.528Z,19.10
2023-12-19T23:21:29.361Z,15.65
2023-12-19T23:23:55.904Z,17.13
2023-12-19T23:26:23.494Z,17.77
2023-12-19T23:28:49.994Z,18.98
2023-12-19T23:31:21.734Z,15.38
2023-12-19T23:33:51.470Z,20.73
2023-12-19T23:36:18.311Z,17.83
2023-12-19T23:38:45.315Z,16.75
2023-12-19T23:41:18.998Z,17.90
2023-12-19T23:43:46.453Z,16.98
2023-12-19T23:46:20.841Z,17.25
2023-12-19T23:48:47.822Z,18.52
2023-12-19T23:51:16.195Z,15.93
2023-12-19T23:53:43.543Z,16.48
2023-12-19T23:56:10.404Z,18.75
